Relevés horaires Bierset (Belgique)


Relevés horaires à Bierset - Dimanche 01 Juill. 2018
Heure UTC1 Température [°C] Vent [km/h] Hum. [%] Pres.4 [hPa] Visi. [Km] Nébu. [octa] Préc.5 [mm] Cond.
2m. Res. Ros. Dir.2 Vit. Moy. Raf.3
23:00 20.4 20.4 5.0 ESE 7.4 7.4 16.7 36 1014.5(0.5/3h) 30 1/8 -- --
22:00 21.3 21.3 4.6 E 7.4 7.4 22.2 33 1014.7(1.0/3h) 30 1/8 -- --
21:00 21.9 21.9 4.8 E 7.4 11.1 22.2 33 1014.3(0.8/3h) 30 1/8 -- --
20:00 23.0 23.0 4.5 E 7.4 9.3 16.7 30 1013.9(0.5/3h) 30 1/8 -- --
19:00 24.5 24.5 4.1 E 9.3 11.1 18.5 27 1013.5(0.0/3h) 30 1/8 -- --
18:00 25.5 25.5 4.9 ENE 11.1 14.8 22.2 27 1013.3(-0.3/3h) 30 1/8 0/12h
--
17:00 26.0 26.0 5.6 ENE 13.0 14.8 20.4 27 1013.2(-0.5/3h) 30 1/8 -- --
16:00 26.7 26.7 6.0 NE 13.0 13.0 20.4 27 1013.3(-0.5/3h) 30 0/8 -- --
15:00 26.6 26.6 6.4 ENE 11.1 13.0 22.2 28 1013.5(-0.7/3h) 30 0/8 -- --
14:00 26.9 26.9 7.1 ENE 11.1 13.0 20.4 28 1013.7(-0.8/3h) 30 0/8 -- --
13:00 27.0 27.0 7.0 ENE 9.3 13.0 22.2 28 1013.9(-0.6/3h) 30 0/8 -- --
12:00 27.1 27.1 6.6 SE 5.6 11.1 24.1 27 1014.1(-0.4/3h) 30 0/8 0/6h
--
11:00 25.9 25.9 6.1 ESE 7.4 11.1 24.1 28 1014.6(0.0/3h) 30 0/8 -- --
10:00 25.0 25.0 7.9 ENE 7.4 9.3 13.0 34 1014.7(0.0/3h) 30 0/8 -- --
09:00 23.8 23.8 8.3 ENE 7.4 7.4 14.8 37 1014.7(0.5/3h) 30 1/8 -- --
08:00 21.9 21.9 6.6 E 5.6 5.6 13.0 37 1014.9(0.9/3h) 30 1/8 -- --
07:00 20.6 20.6 5.4 E 5.6 5.6 14.8 37 1014.9(0.8/3h) 30 1/8 -- --
06:00 19.5 19.5 4.6 E 5.6 9.3 25.9 37 1014.5(0.7/3h) 30 1/8 0/12h
--
05:00 18.7 18.7 4.5 E 5.6 5.6 9.3 39 1014.2(0.6/3h) 30 1/8 -- --
04:00 18.3 18.3 4.1 E 3.7 7.4 18.5 39 1014.3(0.6/3h) 30 1/8 -- --
03:00 19.3 19.3 3.6 E 5.6 9.3 25.9 35 1013.8(-0.2/3h) 30 2/8 -- --
02:00 20.1 20.1 3.4 ESE 9.3 9.3 20.4 33 1013.5(0.0/3h) 30 0/8 -- --
01:00 20.8 20.8 3.7 ESE 9.3 9.3 25.9 32 1013.5(0.1/3h) 30 0/8 -- --
00:00 21.2 21.2 5.7 ESE 7.4 11.1 16.7 36 1013.5(0.4/3h) 30 0/8 0/6h
0/24h
--

1 Coordinated Universal Time. Actuellement il est 05:00 locale et 04:00 UTC.

2 Le vent souffle depuis la direction indiquée vers la direction oposée.

3 Les rafales max. sont disponible 40 min après l'heure du relevé.

4 Pour les stations d'altitude (plus de 600m) le géopotentiel du niveau le plus proche de la pression obligatoire est indiqué.

5 Les stations disposant d'un diffuseur peuvent indiquer "trace". Cela signifie que des précipitations ont touchés le sol mais que la quantité est inférieure à 0.1 mm.

Récapitulatif de la journée
Température [°C] Vent [km/h] Ensoleillement4 [h] Precipitations totale5 [mm] Pression [Hpa]
Min1 Max.2 Moy.3 Max. Min Max.
18.1 27.4 10 25.9 0 h 0 min 0 1013.2 1014.9

1 Température minimale relevée entre 18:00 UTC la veille et 18:00 UTC le jour donné.

2 Température maximale relevée entre 06:00 UTC le jour donné et 06:00 UTC le lendemain.

3 Vent moyen de la journée basé sur les relevés horaires.

4 Ensoleillement en heures relevé entre 06:00 UTC la veille et 06:00 UTC le jour donné.

5 Précipitations totales tombées entre 06:00 UTC la jour donné et 06:00 UTC le lendemain.

Graphiques horaires